sensor_id;sensor_type;location;lat;lon;timestamp;P1;durP1;ratioP1;P2;durP2;ratioP2
23722;SDS011;12042;52.136;5.584;2023-02-19T06:54:20;32.75;;;16.48;;
23722;SDS011;12042;52.136;5.584;2023-02-19T06:56:46;32.28;;;17.88;;
23722;SDS011;12042;52.136;5.584;2023-02-19T06:59:13;31.70;;;17.90;;
23722;SDS011;12042;52.136;5.584;2023-02-19T07:01:41;37.75;;;17.98;;
23722;SDS011;12042;52.136;5.584;2023-02-19T07:04:10;37.80;;;19.63;;
23722;SDS011;12042;52.136;5.584;2023-02-19T07:06:36;34.42;;;18.45;;
23722;SDS011;12042;52.136;5.584;2023-02-19T07:09:02;33.80;;;19.02;;
23722;SDS011;12042;52.136;5.584;2023-02-19T07:11:30;34.03;;;18.85;;
23722;SDS011;12042;52.136;5.584;2023-02-19T07:13:57;37.13;;;19.45;;
23722;SDS011;12042;52.136;5.584;2023-02-19T07:16:24;36.40;;;20.48;;
23722;SDS011;12042;52.136;5.584;2023-02-19T07:18:51;41.28;;;20.88;;
23722;SDS011;12042;52.136;5.584;2023-02-19T07:21:16;39.95;;;22.48;;
23722;SDS011;12042;52.136;5.584;2023-02-19T07:23:42;37.45;;;21.63;;
23722;SDS011;12042;52.136;5.584;2023-02-19T07:26:16;40.17;;;21.92;;
23722;SDS011;12042;52.136;5.584;2023-02-19T07:28:46;38.90;;;20.75;;
23722;SDS011;12042;52.136;5.584;2023-02-19T07:31:13;39.05;;;21.27;;
23722;SDS011;12042;52.136;5.584;2023-02-19T07:33:44;43.78;;;22.52;;
23722;SDS011;12042;52.136;5.584;2023-02-19T07:36:11;41.38;;;22.30;;
23722;SDS011;12042;52.136;5.584;2023-02-19T07:38:36;43.85;;;21.42;;
23722;SDS011;12042;52.136;5.584;2023-02-19T07:41:02;39.40;;;21.15;;
23722;SDS011;12042;52.136;5.584;2023-02-19T07:43:30;39.75;;;20.42;;
23722;SDS011;12042;52.136;5.584;2023-02-19T07:45:57;45.95;;;21.77;;
23722;SDS011;12042;52.136;5.584;2023-02-19T07:48:26;38.80;;;20.95;;
23722;SDS011;12042;52.136;5.584;2023-02-19T07:50:55;38.63;;;20.98;;
23722;SDS011;12042;52.136;5.584;2023-02-19T07:53:23;33.35;;;19.90;;
23722;SDS011;12042;52.136;5.584;2023-02-19T07:55:49;43.10;;;21.27;;
23722;SDS011;12042;52.136;5.584;2023-02-19T07:58:15;40.78;;;20.98;;
23722;SDS011;12042;52.136;5.584;2023-02-19T08:00:41;51.20;;;20.80;;
23722;SDS011;12042;52.136;5.584;2023-02-19T08:03:06;41.42;;;20.10;;
23722;SDS011;12042;52.136;5.584;2023-02-19T08:05:33;37.85;;;18.90;;
23722;SDS011;12042;52.136;5.584;2023-02-19T08:08:02;38.97;;;19.83;;
23722;SDS011;12042;52.136;5.584;2023-02-19T08:10:35;48.53;;;19.33;;
23722;SDS011;12042;52.136;5.584;2023-02-19T08:13:19;38.95;;;18.63;;
23722;SDS011;12042;52.136;5.584;2023-02-19T08:15:53;35.08;;;17.90;;
23722;SDS011;12042;52.136;5.584;2023-02-19T08:18:42;40.53;;;18.10;;
23722;SDS011;12042;52.136;5.584;2023-02-19T08:21:08;38.35;;;17.65;;
23722;SDS011;12042;52.136;5.584;2023-02-19T08:23:33;36.47;;;16.70;;
23722;SDS011;12042;52.136;5.584;2023-02-19T08:25:59;46.42;;;17.05;;
23722;SDS011;12042;52.136;5.584;2023-02-19T08:28:28;40.05;;;16.88;;
23722;SDS011;12042;52.136;5.584;2023-02-19T08:30:57;36.33;;;17.58;;
23722;SDS011;12042;52.136;5.584;2023-02-19T08:33:28;37.67;;;17.20;;
23722;SDS011;12042;52.136;5.584;2023-02-19T08:35:54;31.60;;;17.23;;
23722;SDS011;12042;52.136;5.584;2023-02-19T08:38:20;38.33;;;18.58;;
23722;SDS011;12042;52.136;5.584;2023-02-19T08:40:46;35.08;;;18.45;;
23722;SDS011;12042;52.136;5.584;2023-02-19T08:43:13;36.38;;;18.70;;
23722;SDS011;12042;52.136;5.584;2023-02-19T08:45:40;36.88;;;18.63;;
23722;SDS011;12042;52.136;5.584;2023-02-19T08:48:08;46.25;;;19.75;;
23722;SDS011;12042;52.136;5.584;2023-02-19T08:50:34;38.78;;;19.33;;
23722;SDS011;12042;52.136;5.584;2023-02-19T08:53:00;27.30;;;17.55;;
23722;SDS011;12042;52.136;5.584;2023-02-19T08:55:27;35.17;;;17.52;;
23722;SDS011;12042;52.136;5.584;2023-02-19T08:57:52;32.15;;;17.05;;
23722;SDS011;12042;52.136;5.584;2023-02-19T09:00:18;31.88;;;16.60;;
23722;SDS011;12042;52.136;5.584;2023-02-19T09:02:45;30.63;;;15.20;;
23722;SDS011;12042;52.136;5.584;2023-02-19T09:05:11;28.48;;;15.32;;
23722;SDS011;12042;52.136;5.584;2023-02-19T09:07:37;28.85;;;15.45;;
23722;SDS011;12042;52.136;5.584;2023-02-19T09:10:03;29.67;;;15.52;;
23722;SDS011;12042;52.136;5.584;2023-02-19T09:12:28;27.55;;;16.85;;
23722;SDS011;12042;52.136;5.584;2023-02-19T09:14:54;33.20;;;16.20;;
23722;SDS011;12042;52.136;5.584;2023-02-19T09:17:20;32.42;;;17.25;;
23722;SDS011;12042;52.136;5.584;2023-02-19T09:19:45;33.08;;;17.35;;
23722;SDS011;12042;52.136;5.584;2023-02-19T09:22:11;32.60;;;17.00;;
23722;SDS011;12042;52.136;5.584;2023-02-19T09:24:37;29.90;;;16.08;;
23722;SDS011;12042;52.136;5.584;2023-02-19T09:27:02;29.77;;;16.58;;
23722;SDS011;12042;52.136;5.584;2023-02-19T09:29:28;28.30;;;15.48;;
23722;SDS011;12042;52.136;5.584;2023-02-19T09:31:57;31.15;;;16.52;;
23722;SDS011;12042;52.136;5.584;2023-02-19T09:34:23;30.73;;;17.02;;
23722;SDS011;12042;52.136;5.584;2023-02-19T09:36:50;40.00;;;18.70;;
23722;SDS011;12042;52.136;5.584;2023-02-19T09:39:17;27.40;;;16.55;;
23722;SDS011;12042;52.136;5.584;2023-02-19T09:41:46;32.88;;;16.70;;
23722;SDS011;12042;52.136;5.584;2023-02-19T09:44:23;30.48;;;17.05;;
23722;SDS011;12042;52.136;5.584;2023-02-19T09:46:52;30.70;;;17.02;;
23722;SDS011;12042;52.136;5.584;2023-02-19T09:49:19;31.50;;;18.08;;
23722;SDS011;12042;52.136;5.584;2023-02-19T09:54:37;19.55;;;10.88;;
23722;SDS011;12042;52.136;5.584;2023-02-19T09:57:05;15.73;;;9.07;;
23722;SDS011;12042;52.136;5.584;2023-02-19T09:59:49;10.52;;;6.03;;
23722;SDS011;12042;52.136;5.584;2023-02-19T10:02:22;9.35;;;5.55;;
23722;SDS011;12042;52.136;5.584;2023-02-19T10:04:49;8.27;;;5.55;;
23722;SDS011;12042;52.136;5.584;2023-02-19T10:07:50;7.88;;;6.13;;
23722;SDS011;12042;52.136;5.584;2023-02-19T10:12:48;5.68;;;5.13;;
23722;SDS011;12042;52.136;5.584;2023-02-19T10:15:29;7.70;;;6.15;;
23722;SDS011;12042;52.136;5.584;2023-02-19T10:17:59;6.25;;;5.40;;
23722;SDS011;12042;52.136;5.584;2023-02-19T10:20:26;7.05;;;5.18;;
23722;SDS011;12042;52.136;5.584;2023-02-19T10:22:59;7.18;;;5.70;;
23722;SDS011;12042;52.136;5.584;2023-02-19T10:25:28;6.88;;;6.20;;
23722;SDS011;12042;52.136;5.584;2023-02-19T10:27:56;6.22;;;4.50;;
23722;SDS011;12042;52.136;5.584;2023-02-19T10:30:33;4.72;;;4.28;;
23722;SDS011;12042;52.136;5.584;2023-02-19T10:33:08;5.30;;;4.80;;
23722;SDS011;12042;52.136;5.584;2023-02-19T10:38:28;7.78;;;7.07;;
23722;SDS011;12042;52.136;5.584;2023-02-19T10:41:15;9.02;;;6.57;;
23722;SDS011;12042;52.136;5.584;2023-02-19T10:46:32;5.22;;;4.75;;
23722;SDS011;12042;52.136;5.584;2023-02-19T10:49:18;5.65;;;5.18;;
23722;SDS011;12042;52.136;5.584;2023-02-19T10:51:46;6.10;;;5.53;;
23722;SDS011;12042;52.136;5.584;2023-02-19T10:54:48;7.10;;;6.30;;
23722;SDS011;12042;52.136;5.584;2023-02-19T10:59:53;6.40;;;5.05;;
23722;SDS011;12042;52.136;5.584;2023-02-19T11:02:28;7.35;;;5.00;;
23722;SDS011;12042;52.136;5.584;2023-02-19T11:05:14;7.95;;;5.50;;
23722;SDS011;12042;52.136;5.584;2023-02-19T11:07:48;12.27;;;6.82;;
23722;SDS011;12042;52.136;5.584;2023-02-19T11:12:54;6.18;;;5.15;;
23722;SDS011;12042;52.136;5.584;2023-02-19T11:15:29;6.68;;;5.55;;
23722;SDS011;12042;52.136;5.584;2023-02-19T11:18:03;6.82;;;5.07;;
23722;SDS011;12042;52.136;5.584;2023-02-19T11:20:48;6.18;;;5.13;;
23722;SDS011;12042;52.136;5.584;2023-02-19T11:23:19;17.48;;;6.93;;
23722;SDS011;12042;52.136;5.584;2023-02-19T11:26:18;5.78;;;4.88;;
23722;SDS011;12042;52.136;5.584;2023-02-19T11:28:55;5.97;;;4.75;;
23722;SDS011;12042;52.136;5.584;2023-02-19T11:31:26;5.72;;;4.70;;
23722;SDS011;12042;52.136;5.584;2023-02-19T11:34:21;5.00;;;4.50;;
23722;SDS011;12042;52.136;5.584;2023-02-19T11:37:06;4.88;;;4.20;;
23722;SDS011;12042;52.136;5.584;2023-02-19T11:39:34;5.50;;;4.57;;
23722;SDS011;12042;52.136;5.584;2023-02-19T11:52:44;3.47;;;3.28;;
23722;SDS011;12042;52.136;5.584;2023-02-19T12:01:02;1.77;;;1.67;;
23722;SDS011;12042;52.136;5.584;2023-02-19T12:03:47;1.63;;;1.52;;
23722;SDS011;12042;52.136;5.584;2023-02-19T12:06:26;2.63;;;1.85;;
23722;SDS011;12042;52.136;5.584;2023-02-19T12:11:50;2.30;;;2.20;;
23722;SDS011;12042;52.136;5.584;2023-02-19T12:17:25;3.53;;;3.33;;
23722;SDS011;12042;52.136;5.584;2023-02-19T12:20:16;3.70;;;3.40;;
23722;SDS011;12042;52.136;5.584;2023-02-19T12:28:20;4.13;;;3.80;;
23722;SDS011;12042;52.136;5.584;2023-02-19T12:38:30;7.38;;;6.70;;
23722;SDS011;12042;52.136;5.584;2023-02-19T12:44:25;5.32;;;4.82;;
23722;SDS011;12042;52.136;5.584;2023-02-19T12:46:57;4.90;;;4.60;;
23722;SDS011;12042;52.136;5.584;2023-02-19T12:49:29;3.67;;;3.42;;
23722;SDS011;12042;52.136;5.584;2023-02-19T12:52:24;3.88;;;3.67;;
23722;SDS011;12042;52.136;5.584;2023-02-19T12:54:57;3.10;;;2.90;;
23722;SDS011;12042;52.136;5.584;2023-02-19T12:57:33;3.22;;;3.03;;
23722;SDS011;12042;52.136;5.584;2023-02-19T13:05:21;3.10;;;2.80;;
23722;SDS011;12042;52.136;5.584;2023-02-19T13:10:47;3.65;;;3.45;;
23722;SDS011;12042;52.136;5.584;2023-02-19T13:13:29;4.00;;;2.70;;
23722;SDS011;12042;52.136;5.584;2023-02-19T13:16:00;2.85;;;2.60;;
23722;SDS011;12042;52.136;5.584;2023-02-19T13:18:33;3.58;;;2.25;;
23722;SDS011;12042;52.136;5.584;2023-02-19T13:21:05;3.80;;;3.50;;
23722;SDS011;12042;52.136;5.584;2023-02-19T13:23:32;4.75;;;4.45;;
23722;SDS011;12042;52.136;5.584;2023-02-19T13:37:20;4.00;;;3.58;;
23722;SDS011;12042;52.136;5.584;2023-02-19T13:39:50;5.93;;;4.40;;
23722;SDS011;12042;52.136;5.584;2023-02-19T13:42:24;4.93;;;3.58;;
23722;SDS011;12042;52.136;5.584;2023-02-19T13:44:52;4.28;;;3.88;;
23722;SDS011;12042;52.136;5.584;2023-02-19T13:50:23;2.92;;;2.72;;
23722;SDS011;12042;52.136;5.584;2023-02-19T13:52:57;7.60;;;5.40;;
23722;SDS011;12042;52.136;5.584;2023-02-19T13:55:47;4.80;;;4.03;;
23722;SDS011;12042;52.136;5.584;2023-02-19T14:01:05;4.43;;;4.07;;
23722;SDS011;12042;52.136;5.584;2023-02-19T14:06:02;5.38;;;4.97;;
23722;SDS011;12042;52.136;5.584;2023-02-19T14:11:17;4.32;;;3.83;;
23722;SDS011;12042;52.136;5.584;2023-02-19T14:14:03;2.83;;;2.58;;
23722;SDS011;12042;52.136;5.584;2023-02-19T14:16:48;2.60;;;2.40;;
23722;SDS011;12042;52.136;5.584;2023-02-19T14:27:53;2.30;;;2.10;;
23722;SDS011;12042;52.136;5.584;2023-02-19T14:30:33;2.00;;;1.90;;
23722;SDS011;12042;52.136;5.584;2023-02-19T14:33:16;5.07;;;4.57;;
23722;SDS011;12042;52.136;5.584;2023-02-19T14:35:51;7.75;;;5.30;;
23722;SDS011;12042;52.136;5.584;2023-02-19T14:38:22;2.70;;;2.50;;
23722;SDS011;12042;52.136;5.584;2023-02-19T14:40:51;9.23;;;6.15;;
23722;SDS011;12042;52.136;5.584;2023-02-19T14:43:20;3.22;;;3.03;;
23722;SDS011;12042;52.136;5.584;2023-02-19T14:45:48;3.20;;;3.00;;
23722;SDS011;12042;52.136;5.584;2023-02-19T14:48:25;3.22;;;3.00;;
23722;SDS011;12042;52.136;5.584;2023-02-19T14:51:00;7.40;;;6.30;;
23722;SDS011;12042;52.136;5.584;2023-02-19T14:53:31;3.33;;;3.13;;
23722;SDS011;12042;52.136;5.584;2023-02-19T14:56:02;8.68;;;5.82;;
23722;SDS011;12042;52.136;5.584;2023-02-19T14:58:32;2.55;;;2.35;;
23722;SDS011;12042;52.136;5.584;2023-02-19T15:00:58;2.33;;;2.13;;
23722;SDS011;12042;52.136;5.584;2023-02-19T15:06:13;11.45;;;8.00;;
23722;SDS011;12042;52.136;5.584;2023-02-19T15:08:47;9.82;;;6.97;;
23722;SDS011;12042;52.136;5.584;2023-02-19T15:11:19;10.52;;;7.93;;
23722;SDS011;12042;52.136;5.584;2023-02-19T15:13:48;8.95;;;7.93;;
23722;SDS011;12042;52.136;5.584;2023-02-19T15:16:17;7.38;;;6.68;;
23722;SDS011;12042;52.136;5.584;2023-02-19T15:18:45;20.00;;;12.05;;
23722;SDS011;12042;52.136;5.584;2023-02-19T15:21:17;8.70;;;7.15;;
23722;SDS011;12042;52.136;5.584;2023-02-19T15:23:56;2.55;;;2.33;;
23722;SDS011;12042;52.136;5.584;2023-02-19T15:29:10;3.20;;;3.00;;
23722;SDS011;12042;52.136;5.584;2023-02-19T15:31:49;1.45;;;1.35;;
23722;SDS011;12042;52.136;5.584;2023-02-19T15:34:17;2.67;;;2.47;;
23722;SDS011;12042;52.136;5.584;2023-02-19T15:36:46;5.38;;;4.90;;
23722;SDS011;12042;52.136;5.584;2023-02-19T15:39:23;4.22;;;2.67;;
23722;SDS011;12042;52.136;5.584;2023-02-19T15:41:52;1.60;;;1.50;;
23722;SDS011;12042;52.136;5.584;2023-02-19T15:44:41;1.60;;;1.50;;
23722;SDS011;12042;52.136;5.584;2023-02-19T15:47:13;4.00;;;3.70;;
23722;SDS011;12042;52.136;5.584;2023-02-19T15:52:23;2.55;;;2.30;;
23722;SDS011;12042;52.136;5.584;2023-02-19T15:57:33;8.13;;;5.78;;
23722;SDS011;12042;52.136;5.584;2023-02-19T16:03:01;2.50;;;2.40;;
23722;SDS011;12042;52.136;5.584;2023-02-19T16:05:27;4.53;;;4.32;;
23722;SDS011;12042;52.136;5.584;2023-02-19T16:08:14;4.78;;;4.38;;
23722;SDS011;12042;52.136;5.584;2023-02-19T16:10:58;4.13;;;3.80;;
23722;SDS011;12042;52.136;5.584;2023-02-19T16:13:25;4.07;;;3.00;;
23722;SDS011;12042;52.136;5.584;2023-02-19T16:15:54;2.47;;;1.60;;
23722;SDS011;12042;52.136;5.584;2023-02-19T16:18:30;1.88;;;1.77;;
23722;SDS011;12042;52.136;5.584;2023-02-19T16:20:56;2.30;;;2.20;;
23722;SDS011;12042;52.136;5.584;2023-02-19T16:23:22;2.05;;;1.95;;
23722;SDS011;12042;52.136;5.584;2023-02-19T16:25:55;3.40;;;3.10;;
23722;SDS011;12042;52.136;5.584;2023-02-19T16:28:24;3.40;;;3.20;;
23722;SDS011;12042;52.136;5.584;2023-02-19T16:30:58;4.28;;;3.92;;
23722;SDS011;12042;52.136;5.584;2023-02-19T16:33:39;10.93;;;6.07;;
23722;SDS011;12042;52.136;5.584;2023-02-19T16:41:28;6.15;;;5.63;;
23722;SDS011;12042;52.136;5.584;2023-02-19T16:43:54;5.07;;;4.75;;
23722;SDS011;12042;52.136;5.584;2023-02-19T16:46:19;5.20;;;4.70;;
23722;SDS011;12042;52.136;5.584;2023-02-19T16:48:45;5.20;;;4.70;;
23722;SDS011;12042;52.136;5.584;2023-02-19T16:51:14;4.75;;;4.35;;
23722;SDS011;12042;52.136;5.584;2023-02-19T16:53:46;5.35;;;4.85;;
23722;SDS011;12042;52.136;5.584;2023-02-19T16:56:15;4.85;;;4.45;;
23722;SDS011;12042;52.136;5.584;2023-02-19T16:58:45;6.13;;;5.63;;
23722;SDS011;12042;52.136;5.584;2023-02-19T17:01:10;5.80;;;5.30;;
23722;SDS011;12042;52.136;5.584;2023-02-19T17:03:36;5.53;;;4.90;;
23722;SDS011;12042;52.136;5.584;2023-02-19T17:06:03;8.63;;;4.95;;
23722;SDS011;12042;52.136;5.584;2023-02-19T17:08:31;7.90;;;5.60;;
23722;SDS011;12042;52.136;5.584;2023-02-19T17:11:09;5.38;;;4.93;;
23722;SDS011;12042;52.136;5.584;2023-02-19T17:13:39;7.28;;;5.57;;
23722;SDS011;12042;52.136;5.584;2023-02-19T17:16:06;7.18;;;6.47;;
23722;SDS011;12042;52.136;5.584;2023-02-19T17:18:34;5.82;;;5.25;;
23722;SDS011;12042;52.136;5.584;2023-02-19T17:21:11;8.13;;;7.00;;
23722;SDS011;12042;52.136;5.584;2023-02-19T17:23:45;7.90;;;6.88;;
23722;SDS011;12042;52.136;5.584;2023-02-19T17:26:14;6.68;;;6.05;;
23722;SDS011;12042;52.136;5.584;2023-02-19T17:28:44;7.28;;;6.68;;
23722;SDS011;12042;52.136;5.584;2023-02-19T17:31:10;6.25;;;5.65;;
23722;SDS011;12042;52.136;5.584;2023-02-19T17:33:36;6.65;;;6.05;;
23722;SDS011;12042;52.136;5.584;2023-02-19T17:36:02;6.93;;;5.07;;
23722;SDS011;12042;52.136;5.584;2023-02-19T17:38:28;6.28;;;5.20;;
23722;SDS011;12042;52.136;5.584;2023-02-19T17:40:54;4.63;;;4.30;;
23722;SDS011;12042;52.136;5.584;2023-02-19T17:43:19;4.05;;;3.63;;
23722;SDS011;12042;52.136;5.584;2023-02-19T17:45:45;4.55;;;4.20;;
23722;SDS011;12042;52.136;5.584;2023-02-19T17:48:11;4.20;;;3.97;;
23722;SDS011;12042;52.136;5.584;2023-02-19T17:50:38;4.60;;;4.20;;
23722;SDS011;12042;52.136;5.584;2023-02-19T17:53:04;5.32;;;4.05;;
23722;SDS011;12042;52.136;5.584;2023-02-19T17:55:29;4.45;;;4.15;;
23722;SDS011;12042;52.136;5.584;2023-02-19T17:57:55;4.90;;;4.50;;
23722;SDS011;12042;52.136;5.584;2023-02-19T18:00:22;4.70;;;4.40;;
23722;SDS011;12042;52.136;5.584;2023-02-19T18:02:55;5.00;;;4.55;;
23722;SDS011;12042;52.136;5.584;2023-02-19T18:05:21;4.70;;;4.30;;
23722;SDS011;12042;52.136;5.584;2023-02-19T18:07:51;7.75;;;4.50;;
23722;SDS011;12042;52.136;5.584;2023-02-19T18:10:17;4.55;;;4.00;;
23722;SDS011;12042;52.136;5.584;2023-02-19T18:12:44;5.65;;;4.35;;
23722;SDS011;12042;52.136;5.584;2023-02-19T18:15:15;13.00;;;8.85;;
23722;SDS011;12042;52.136;5.584;2023-02-19T18:17:42;10.73;;;7.97;;
23722;SDS011;12042;52.136;5.584;2023-02-19T18:20:11;8.63;;;6.15;;
23722;SDS011;12042;52.136;5.584;2023-02-19T18:22:47;9.25;;;6.45;;
23722;SDS011;12042;52.136;5.584;2023-02-19T18:25:13;5.68;;;5.28;;
23722;SDS011;12042;52.136;5.584;2023-02-19T18:27:40;8.30;;;7.47;;
23722;SDS011;12042;52.136;5.584;2023-02-19T18:30:06;6.35;;;5.85;;
23722;SDS011;12042;52.136;5.584;2023-02-19T18:32:33;8.80;;;6.03;;
23722;SDS011;12042;52.136;5.584;2023-02-19T18:34:59;14.13;;;11.20;;
23722;SDS011;12042;52.136;5.584;2023-02-19T18:37:26;7.78;;;7.07;;
23722;SDS011;12042;52.136;5.584;2023-02-19T18:39:54;5.13;;;4.63;;
23722;SDS011;12042;52.136;5.584;2023-02-19T18:42:20;4.45;;;3.95;;
23722;SDS011;12042;52.136;5.584;2023-02-19T18:44:46;3.33;;;3.05;;
23722;SDS011;12042;52.136;5.584;2023-02-19T18:47:13;4.20;;;3.75;;
23722;SDS011;12042;52.136;5.584;2023-02-19T18:49:43;4.72;;;4.43;;
23722;SDS011;12042;52.136;5.584;2023-02-19T18:52:17;7.32;;;4.88;;
23722;SDS011;12042;52.136;5.584;2023-02-19T18:54:49;3.85;;;3.40;;
23722;SDS011;12042;52.136;5.584;2023-02-19T18:57:15;3.53;;;3.15;;
23722;SDS011;12042;52.136;5.584;2023-02-19T18:59:46;2.78;;;2.45;;
23722;SDS011;12042;52.136;5.584;2023-02-19T19:02:15;2.60;;;2.38;;
23722;SDS011;12042;52.136;5.584;2023-02-19T19:04:41;3.80;;;3.10;;
23722;SDS011;12042;52.136;5.584;2023-02-19T19:07:07;2.58;;;2.38;;
23722;SDS011;12042;52.136;5.584;2023-02-19T19:09:34;3.42;;;2.80;;
23722;SDS011;12042;52.136;5.584;2023-02-19T19:12:00;5.07;;;3.95;;
23722;SDS011;12042;52.136;5.584;2023-02-19T19:14:27;4.82;;;4.35;;
23722;SDS011;12042;52.136;5.584;2023-02-19T19:16:52;5.60;;;4.50;;
23722;SDS011;12042;52.136;5.584;2023-02-19T19:19:18;8.20;;;4.90;;
23722;SDS011;12042;52.136;5.584;2023-02-19T19:21:44;5.35;;;4.88;;
23722;SDS011;12042;52.136;5.584;2023-02-19T19:24:20;7.10;;;5.28;;
23722;SDS011;12042;52.136;5.584;2023-02-19T19:26:46;3.70;;;3.50;;
23722;SDS011;12042;52.136;5.584;2023-02-19T19:29:13;3.40;;;3.10;;
23722;SDS011;12042;52.136;5.584;2023-02-19T19:31:40;3.83;;;3.13;;
23722;SDS011;12042;52.136;5.584;2023-02-19T19:34:06;3.65;;;3.40;;
23722;SDS011;12042;52.136;5.584;2023-02-19T19:36:32;3.10;;;2.80;;
23722;SDS011;12042;52.136;5.584;2023-02-19T19:38:58;3.28;;;3.08;;
23722;SDS011;12042;52.136;5.584;2023-02-19T19:41:23;4.70;;;3.60;;
23722;SDS011;12042;52.136;5.584;2023-02-19T19:43:49;3.45;;;3.25;;
23722;SDS011;12042;52.136;5.584;2023-02-19T19:46:15;4.38;;;3.97;;
23722;SDS011;12042;52.136;5.584;2023-02-19T19:48:44;7.00;;;5.55;;
23722;SDS011;12042;52.136;5.584;2023-02-19T19:51:10;6.30;;;5.70;;
23722;SDS011;12042;52.136;5.584;2023-02-19T19:53:36;6.72;;;5.53;;
23722;SDS011;12042;52.136;5.584;2023-02-19T19:56:02;9.43;;;5.63;;
23722;SDS011;12042;52.136;5.584;2023-02-19T19:58:28;5.57;;;4.90;;
23722;SDS011;12042;52.136;5.584;2023-02-19T20:00:53;4.80;;;4.45;;
23722;SDS011;12042;52.136;5.584;2023-02-19T20:03:19;4.82;;;4.43;;
23722;SDS011;12042;52.136;5.584;2023-02-19T20:05:45;4.35;;;4.05;;
23722;SDS011;12042;52.136;5.584;2023-02-19T20:08:14;5.15;;;4.45;;
23722;SDS011;12042;52.136;5.584;2023-02-19T20:10:41;5.25;;;4.75;;
23722;SDS011;12042;52.136;5.584;2023-02-19T20:13:06;6.47;;;4.80;;
23722;SDS011;12042;52.136;5.584;2023-02-19T20:15:32;5.43;;;4.93;;
23722;SDS011;12042;52.136;5.584;2023-02-19T20:17:59;8.05;;;6.63;;
23722;SDS011;12042;52.136;5.584;2023-02-19T20:20:25;11.68;;;8.32;;
23722;SDS011;12042;52.136;5.584;2023-02-19T20:22:50;12.45;;;8.77;;
23722;SDS011;12042;52.136;5.584;2023-02-19T20:25:17;8.45;;;7.55;;
23722;SDS011;12042;52.136;5.584;2023-02-19T20:27:46;7.30;;;6.20;;
23722;SDS011;12042;52.136;5.584;2023-02-19T20:30:13;6.82;;;5.63;;
23722;SDS011;12042;52.136;5.584;2023-02-19T20:32:40;6.65;;;5.85;;
23722;SDS011;12042;52.136;5.584;2023-02-19T20:35:06;6.70;;;6.10;;
23722;SDS011;12042;52.136;5.584;2023-02-19T20:37:32;5.28;;;4.88;;
23722;SDS011;12042;52.136;5.584;2023-02-19T20:39:57;4.28;;;3.97;;
23722;SDS011;12042;52.136;5.584;2023-02-19T20:42:23;4.82;;;4.35;;
23722;SDS011;12042;52.136;5.584;2023-02-19T20:44:48;4.65;;;4.35;;
23722;SDS011;12042;52.136;5.584;2023-02-19T20:47:14;4.88;;;4.47;;
23722;SDS011;12042;52.136;5.584;2023-02-19T20:49:42;6.70;;;4.80;;
23722;SDS011;12042;52.136;5.584;2023-02-19T20:52:10;4.90;;;4.50;;
23722;SDS011;12042;52.136;5.584;2023-02-19T20:54:37;4.88;;;4.57;;
23722;SDS011;12042;52.136;5.584;2023-02-19T20:57:03;4.80;;;4.50;;
23722;SDS011;12042;52.136;5.584;2023-02-19T20:59:30;4.85;;;4.55;;
23722;SDS011;12042;52.136;5.584;2023-02-19T21:01:59;4.72;;;4.43;;
23722;SDS011;12042;52.136;5.584;2023-02-19T21:04:29;5.10;;;4.78;;
23722;SDS011;12042;52.136;5.584;2023-02-19T21:06:55;5.43;;;5.03;;
23722;SDS011;12042;52.136;5.584;2023-02-19T21:09:21;5.68;;;5.20;;
23722;SDS011;12042;52.136;5.584;2023-02-19T21:11:47;5.82;;;5.38;;
23722;SDS011;12042;52.136;5.584;2023-02-19T21:14:13;5.82;;;5.25;;
23722;SDS011;12042;52.136;5.584;2023-02-19T21:16:39;5.47;;;5.07;;
23722;SDS011;12042;52.136;5.584;2023-02-19T21:19:05;6.32;;;5.82;;
23722;SDS011;12042;52.136;5.584;2023-02-19T21:21:31;6.40;;;5.80;;
23722;SDS011;12042;52.136;5.584;2023-02-19T21:23:58;7.03;;;6.53;;
23722;SDS011;12042;52.136;5.584;2023-02-19T21:26:31;6.60;;;6.10;;
23722;SDS011;12042;52.136;5.584;2023-02-19T21:29:01;6.97;;;6.47;;
23722;SDS011;12042;52.136;5.584;2023-02-19T21:31:38;6.82;;;6.22;;
23722;SDS011;12042;52.136;5.584;2023-02-19T21:34:08;7.38;;;6.78;;
